Terminal Aerodrome Forecast
Issued by NWS

Home | Current Version | Previous Version | Text Only | Print | Product List | Glossary On
Versions: 1 2 3 4 5 6 7 8 9 10 11 12 13 14 15 16
000
FTUS41 KBGM 302000 AAA
TAFITH
TAF AMD
KITH 302016Z 3020/0118 15005KT P6SM BKN050
      TEMPO 3021/3023 4SM TSRA OVC035CB
     FM010300 VRB03KT 3SM BR SCT002 BKN070
      TEMPO 0108/0112 1 1/2SM BR OVC002
     FM011400 14005KT P6SM BKN025=

USA.gov is the U.S. government's official web portal to all federal, state and local government web resources and services.